TPS weather

Vincenzo Florio Airport Trapani-Birgi
Trapani (TP), Sicily, Italy

Public forecast

Using degrees Celsius for public forecast. Weather courtesy of forecast.io.

Current aviation weather report (METAR) for Vincenzo Florio Airport Trapani-Birgi

Retrieved 2019/10/18 17:55 UTC (8 minutes ago):

LICT 181755Z 04003KT 9999 FEW030 19/17 Q1017

Aviation forecast (TAF) for Vincenzo Florio Airport Trapani-Birgi

Forecast is more than 12 hours old.

Retrieved 2019/01/11 09:24 UTC (9 months ago):

TAF TAF LICT 110800Z 1109/1121 33012KT 9999 SCT025